Time;durP1;ratioP1;P1;durP2;ratioP2;P2;SDS_P1;SDS_P2;PMS_P1;PMS_P2;Temp;Humidity;BMP_temperature;BMP_pressure;BME280_temperature;BME280_humidity;BME280_pressure;Samples;Min_cycle;Max_cycle;Signal;HPM_P1;HPM_P2
2021/05/22 00:00:55;;;;;;;4.22;0.90;;;17.00;96.70;;;;;;5096301;28;20035;-79
2021/05/22 00:03:23;;;;;;;4.20;1.20;;;17.00;96.70;;;;;;5097290;27;20043;-79
2021/05/22 00:05:53;;;;;;;4.82;0.80;;;17.00;96.70;;;;;;5102174;28;20075;-79
2021/05/22 00:08:24;;;;;;;3.90;0.90;;;17.10;96.70;;;;;;5101889;28;20044;-80
2021/05/22 00:10:54;;;;;;;6.28;1.02;;;17.10;96.70;;;;;;5100668;28;20131;-79
2021/05/22 00:13:23;;;;;;;5.30;0.90;;;17.20;96.70;;;;;;5101327;28;20044;-80
2021/05/22 00:15:53;;;;;;;3.08;1.02;;;17.20;96.70;;;;;;5099123;28;20050;-80
2021/05/22 00:18:26;;;;;;;5.25;1.05;;;17.10;96.70;;;;;;5102631;27;20047;-79
2021/05/22 00:20:57;;;;;;;4.35;0.85;;;17.10;96.70;;;;;;5101608;28;20113;-79
2021/05/22 00:23:28;;;;;;;3.95;0.95;;;17.00;96.70;;;;;;5085070;28;20526;-79
2021/05/22 00:25:58;;;;;;;3.05;0.73;;;16.90;96.70;;;;;;5096222;28;20049;-79
2021/05/22 00:28:28;;;;;;;2.67;0.77;;;16.90;96.70;;;;;;5101078;28;20158;-79
2021/05/22 00:30:57;;;;;;;2.88;0.60;;;16.90;96.70;;;;;;5098012;28;20071;-79
2021/05/22 00:33:25;;;;;;;2.25;0.70;;;16.80;96.70;;;;;;5101768;28;20085;-79
2021/05/22 00:35:54;;;;;;;5.55;1.02;;;16.80;96.70;;;;;;5094251;28;20058;-79
2021/05/22 00:38:23;;;;;;;3.67;0.65;;;16.80;96.70;;;;;;5099210;28;20047;-80
2021/05/22 00:40:53;;;;;;;2.92;0.93;;;16.70;96.70;;;;;;5095942;28;20055;-80
2021/05/22 00:43:22;;;;;;;4.22;0.95;;;16.60;96.70;;;;;;5074568;28;20044;-80
2021/05/22 00:45:54;;;;;;;5.78;1.20;;;16.50;96.70;;;;;;5093083;28;20126;-80
2021/05/22 00:48:24;;;;;;;5.25;0.90;;;16.50;96.70;;;;;;5101216;28;20305;-79
2021/05/22 00:50:53;;;;;;;3.17;0.88;;;16.50;96.70;;;;;;5100287;28;20698;-80
2021/05/22 00:53:22;;;;;;;1.85;0.55;;;16.50;96.70;;;;;;5100951;28;20130;-79
2021/05/22 00:55:52;;;;;;;6.40;1.15;;;16.40;96.70;;;;;;5099870;28;20055;-79
2021/05/22 00:58:23;;;;;;;6.50;1.05;;;16.30;96.70;;;;;;5096219;27;20146;-79
2021/05/22 01:00:53;;;;;;;2.05;0.73;;;16.20;96.70;;;;;;5096630;28;20043;-79
2021/05/22 01:03:26;;;;;;;3.78;0.90;;;16.20;96.70;;;;;;5100515;28;20039;-79
2021/05/22 01:06:07;;;;;;;2.97;0.70;;;16.10;96.70;;;;;;5094758;28;20493;-79
2021/05/22 01:08:37;;;;;;;4.47;0.93;;;16.10;96.70;;;;;;5096411;28;20071;-80
2021/05/22 01:11:13;;;;;;;7.03;1.00;;;16.10;96.70;;;;;;5099426;28;20046;-79
2021/05/22 01:13:47;;;;;;;6.38;1.08;;;16.20;96.70;;;;;;5097198;28;20552;-79
2021/05/22 01:16:21;;;;;;;5.22;0.80;;;16.20;96.70;;;;;;5083179;28;20058;-79
2021/05/22 01:18:51;;;;;;;3.88;0.80;;;16.10;96.70;;;;;;5079858;28;20044;-80
2021/05/22 01:21:21;;;;;;;3.03;1.10;;;16.10;96.70;;;;;;5070819;28;20043;-79
2021/05/22 01:24:14;;;;;;;4.25;0.90;;;16.10;96.70;;;;;;5091304;28;20515;-79
2021/05/22 01:26:44;;;;;;;5.70;0.90;;;16.10;96.70;;;;;;5100282;28;20039;-80
2021/05/22 01:29:13;;;;;;;4.03;0.80;;;16.20;96.70;;;;;;5099440;28;20509;-79
2021/05/22 01:31:43;;;;;;;4.00;0.80;;;16.20;96.70;;;;;;5100871;28;20035;-79
2021/05/22 01:34:12;;;;;;;3.97;1.10;;;16.20;96.70;;;;;;5099152;28;20055;-78
2021/05/22 01:36:40;;;;;;;3.55;0.90;;;16.20;96.70;;;;;;5083636;28;20209;-80
2021/05/22 01:39:09;;;;;;;3.63;1.38;;;16.10;96.70;;;;;;5094463;28;20132;-79
2021/05/22 01:41:37;;;;;;;4.43;1.10;;;16.10;96.70;;;;;;5095512;28;20065;-79
2021/05/22 01:44:10;;;;;;;2.80;1.10;;;16.20;96.70;;;;;;5096007;28;20038;-79
2021/05/22 01:46:42;;;;;;;3.10;0.90;;;16.20;96.70;;;;;;5101432;28;20047;-79
2021/05/22 01:49:12;;;;;;;3.88;1.00;;;16.20;96.70;;;;;;5096623;28;20043;-79
2021/05/22 01:51:41;;;;;;;5.22;1.02;;;16.20;96.70;;;;;;5082521;28;20126;-79
2021/05/22 01:54:35;;;;;;;4.22;0.88;;;16.20;96.70;;;;;;5095179;28;20031;-79
2021/05/22 01:57:05;;;;;;;4.90;1.02;;;16.20;96.70;;;;;;5096603;28;20092;-80
2021/05/22 01:59:36;;;;;;;4.30;1.17;;;16.20;96.70;;;;;;5083484;28;20043;-80
2021/05/22 02:02:05;;;;;;;3.47;1.08;;;16.20;96.70;;;;;;5088604;28;21165;-80
2021/05/22 02:08:22;;;;;;;3.22;0.75;;;16.20;96.70;;;;;;5099017;28;20132;-79
2021/05/22 02:10:52;;;;;;;3.08;0.90;;;16.10;96.70;;;;;;5098343;28;20062;-80
2021/05/22 02:13:22;;;;;;;6.55;0.98;;;16.10;96.70;;;;;;5092601;28;20429;-79
2021/05/22 02:16:25;;;;;;;5.25;1.20;;;16.10;96.70;;;;;;5103370;27;20043;-79
2021/05/22 02:18:55;;;;;;;11.60;1.10;;;16.00;96.70;;;;;;5103873;28;20067;-79
2021/05/22 02:21:27;;;;;;;3.85;0.82;;;16.00;96.70;;;;;;5108420;27;20035;-79
2021/05/22 02:23:58;;;;;;;4.00;0.82;;;16.00;96.70;;;;;;5103171;28;20040;-79
2021/05/22 02:26:27;;;;;;;4.10;1.00;;;15.90;96.70;;;;;;5093533;28;20490;-79
2021/05/22 02:28:58;;;;;;;4.70;1.30;;;15.90;96.70;;;;;;5101807;28;20054;-79
2021/05/22 02:31:30;;;;;;;4.25;0.80;;;15.90;96.70;;;;;;5099501;28;20052;-80
2021/05/22 02:34:01;;;;;;;7.18;1.42;;;15.90;96.70;;;;;;5103851;28;20401;-79
2021/05/22 02:36:30;;;;;;;5.40;1.15;;;15.80;96.70;;;;;;5102715;28;20071;-80
2021/05/22 02:39:03;;;;;;;3.58;1.05;;;15.90;96.70;;;;;;5101668;28;20138;-79
2021/05/22 02:41:35;;;;;;;4.55;0.90;;;15.90;96.70;;;;;;5102654;28;20043;-79
2021/05/22 02:44:07;;;;;;;3.58;0.95;;;15.90;96.70;;;;;;5085467;28;20142;-80
2021/05/22 02:46:41;;;;;;;2.70;0.82;;;15.80;96.70;;;;;;5081710;28;20499;-80
2021/05/22 02:49:15;;;;;;;5.55;1.48;;;15.80;96.70;;;;;;5100893;28;20138;-79
2021/05/22 02:51:47;;;;;;;3.08;0.90;;;15.90;96.70;;;;;;5119214;27;20048;-80
2021/05/22 02:54:20;;;;;;;3.67;1.08;;;15.90;96.70;;;;;;5100254;28;20047;-79
2021/05/22 02:56:53;;;;;;;3.40;1.13;;;15.80;96.70;;;;;;5096208;28;20830;-79
2021/05/22 02:59:28;;;;;;;3.35;0.98;;;15.80;96.70;;;;;;5097769;28;20060;-79
2021/05/22 03:02:01;;;;;;;3.88;1.08;;;15.90;96.70;;;;;;5102969;28;20733;-78
2021/05/22 03:04:32;;;;;;;3.25;0.80;;;15.90;96.70;;;;;;5096176;28;20100;-78
2021/05/22 03:07:02;;;;;;;3.10;1.10;;;15.70;96.70;;;;;;5082508;28;20496;-78
2021/05/22 03:09:33;;;;;;;5.93;1.08;;;15.70;96.70;;;;;;5100361;28;20051;-78
2021/05/22 03:12:04;;;;;;;3.88;0.88;;;15.70;96.70;;;;;;5101775;28;20259;-77
2021/05/22 03:14:34;;;;;;;3.50;1.38;;;15.70;96.70;;;;;;5099380;27;20051;-78
2021/05/22 03:17:05;;;;;;;5.35;1.00;;;15.70;96.70;;;;;;5097641;28;20039;-78
2021/05/22 03:19:35;;;;;;;2.95;0.90;;;15.70;96.70;;;;;;5101757;28;20065;-78
2021/05/22 03:22:05;;;;;;;3.22;0.80;;;15.80;96.70;;;;;;5103942;28;20100;-78
2021/05/22 03:24:35;;;;;;;4.53;0.80;;;15.80;96.70;;;;;;5101526;28;20040;-77
2021/05/22 03:27:07;;;;;;;4.70;1.15;;;15.80;96.70;;;;;;5101357;28;20454;-78
2021/05/22 03:29:37;;;;;;;7.45;1.58;;;15.80;96.70;;;;;;5092136;28;20068;-78
2021/05/22 03:32:08;;;;;;;5.45;0.80;;;15.80;96.70;;;;;;5099180;28;20497;-78
2021/05/22 03:34:38;;;;;;;2.58;0.70;;;15.70;96.70;;;;;;5098151;27;20154;-78
2021/05/22 03:37:08;;;;;;;4.45;1.08;;;15.60;96.70;;;;;;5101905;28;20039;-78
2021/05/22 03:39:37;;;;;;;3.13;0.90;;;15.50;96.70;;;;;;5101715;28;20150;-78
2021/05/22 03:42:18;;;;;;;6.82;2.17;;;15.30;96.70;;;;;;5083546;28;20157;-78
2021/05/22 03:44:46;;;;;;;4.15;0.95;;;15.30;96.70;;;;;;5099740;28;20039;-78
2021/05/22 03:47:37;;;;;;;6.18;0.80;;;15.40;96.70;;;;;;5082221;28;20047;-77
2021/05/22 03:50:07;;;;;;;4.90;0.90;;;15.40;96.70;;;;;;5095569;28;20050;-78
2021/05/22 03:52:41;;;;;;;2.25;0.85;;;15.50;96.70;;;;;;5082418;28;20508;-78
2021/05/22 03:55:25;;;;;;;7.20;1.23;;;15.50;96.70;;;;;;5098636;28;20128;-78
2021/05/22 03:58:01;;;;;;;4.70;1.50;;;15.50;96.70;;;;;;5081488;28;20421;-77
2021/05/22 04:00:32;;;;;;;3.60;1.10;;;15.50;96.70;;;;;;5083281;28;20059;-78
2021/05/22 04:03:04;;;;;;;3.20;1.10;;;15.50;96.70;;;;;;5099561;28;20134;-78
2021/05/22 04:05:34;;;;;;;4.38;1.05;;;15.60;96.70;;;;;;5094970;28;20047;-78
2021/05/22 04:08:04;;;;;;;4.82;1.02;;;15.60;96.70;;;;;;5100836;28;20040;-78
2021/05/22 04:10:33;;;;;;;3.92;1.40;;;15.70;96.70;;;;;;5100105;28;20048;-78
2021/05/22 04:13:01;;;;;;;5.63;1.50;;;15.70;96.70;;;;;;5099458;28;20046;-78
2021/05/22 04:15:30;;;;;;;5.10;1.48;;;15.70;96.70;;;;;;5100754;27;20401;-77
2021/05/22 04:17:58;;;;;;;5.00;1.20;;;15.70;96.70;;;;;;5097843;28;20047;-78
2021/05/22 04:20:28;;;;;;;4.38;1.30;;;15.70;96.70;;;;;;5110018;27;20046;-78
2021/05/22 04:22:57;;;;;;;3.15;1.08;;;15.80;96.70;;;;;;5096452;28;20036;-78
2021/05/22 04:25:26;;;;;;;4.80;1.40;;;15.70;96.70;;;;;;5100122;28;20122;-78
2021/05/22 04:27:54;;;;;;;4.25;0.98;;;15.50;96.70;;;;;;5100257;28;20046;-77
2021/05/22 04:30:23;;;;;;;4.85;1.13;;;15.40;96.70;;;;;;5102307;28;20523;-77
2021/05/22 04:32:52;;;;;;;6.35;1.30;;;15.50;96.70;;;;;;5097921;28;20104;-77
2021/05/22 04:35:21;;;;;;;3.10;1.10;;;15.50;96.70;;;;;;5080668;28;20040;-77
2021/05/22 04:37:51;;;;;;;4.32;1.50;;;15.50;96.70;;;;;;5091741;28;20512;-77
2021/05/22 04:40:19;;;;;;;2.13;0.70;;;15.50;96.70;;;;;;5098731;28;20047;-77
2021/05/22 04:42:47;;;;;;;4.43;1.13;;;15.40;96.70;;;;;;5099795;28;20035;-77
2021/05/22 04:45:16;;;;;;;4.93;0.82;;;15.40;96.70;;;;;;5098360;28;20450;-77
2021/05/22 04:47:44;;;;;;;2.38;0.90;;;15.40;96.70;;;;;;5084828;28;20505;-77
2021/05/22 04:50:13;;;;;;;4.18;0.98;;;15.40;96.70;;;;;;5081336;28;20543;-77
2021/05/22 04:52:42;;;;;;;2.88;0.80;;;15.40;96.70;;;;;;5102283;28;20374;-77
2021/05/22 04:55:12;;;;;;;2.75;0.95;;;15.40;96.70;;;;;;5100294;28;20408;-77
2021/05/22 04:57:40;;;;;;;2.55;0.60;;;15.40;96.70;;;;;;5100606;28;20439;-77
2021/05/22 05:00:09;;;;;;;3.72;0.75;;;15.50;96.70;;;;;;5097771;28;20063;-77
2021/05/22 05:02:38;;;;;;;4.47;1.02;;;15.50;96.70;;;;;;5100547;28;20167;-77
2021/05/22 05:05:07;;;;;;;4.07;0.98;;;15.30;96.70;;;;;;5095405;28;20435;-77
2021/05/22 05:07:35;;;;;;;1.92;0.50;;;15.40;96.70;;;;;;5099268;28;20510;-77
2021/05/22 05:10:05;;;;;;;3.97;1.38;;;15.40;96.70;;;;;;5094451;28;20060;-77
2021/05/22 05:12:34;;;;;;;4.28;0.98;;;15.50;96.70;;;;;;5096568;28;20044;-77
2021/05/22 05:15:03;;;;;;;2.50;0.80;;;15.50;96.70;;;;;;5098913;28;20048;-77
2021/05/22 05:17:31;;;;;;;2.38;1.05;;;15.50;96.70;;;;;;5099971;28;20047;-77
2021/05/22 05:20:00;;;;;;;3.67;0.95;;;15.60;96.70;;;;;;5098471;28;20431;-77
2021/05/22 05:22:28;;;;;;;3.17;1.05;;;15.60;96.70;;;;;;5102079;28;20054;-77
2021/05/22 05:24:57;;;;;;;3.30;0.90;;;15.70;96.70;;;;;;5075617;28;20036;-77
2021/05/22 05:27:25;;;;;;;4.70;0.80;;;15.70;96.70;;;;;;5083758;28;20485;-77
2021/05/22 05:29:55;;;;;;;2.63;0.77;;;15.70;96.70;;;;;;5096001;28;20062;-77
2021/05/22 05:32:23;;;;;;;4.57;0.90;;;15.80;96.70;;;;;;5080707;28;20036;-77
2021/05/22 05:34:52;;;;;;;4.20;1.15;;;15.80;96.70;;;;;;5095973;28;20119;-77
2021/05/22 05:37:22;;;;;;;2.85;0.95;;;15.90;96.70;;;;;;5070343;28;20081;-77
2021/05/22 05:39:50;;;;;;;5.32;1.50;;;15.80;96.70;;;;;;5095796;28;20040;-78
2021/05/22 05:42:18;;;;;;;3.75;1.42;;;15.80;96.70;;;;;;5101045;28;20473;-77
2021/05/22 05:44:47;;;;;;;3.90;1.40;;;15.80;96.70;;;;;;5092259;28;20536;-77
2021/05/22 05:47:16;;;;;;;4.43;1.60;;;15.90;96.70;;;;;;5103152;28;20050;-77
2021/05/22 05:49:44;;;;;;;5.20;1.80;;;15.90;96.70;;;;;;5099148;28;20036;-76
2021/05/22 05:52:13;;;;;;;4.60;1.50;;;15.90;96.70;;;;;;5104765;28;20043;-76
2021/05/22 05:54:41;;;;;;;1.90;1.10;;;16.00;96.70;;;;;;5098332;28;20044;-76
2021/05/22 05:57:10;;;;;;;2.60;1.10;;;16.10;96.70;;;;;;5100568;28;20724;-75
2021/05/22 05:59:38;;;;;;;3.95;1.70;;;16.10;96.70;;;;;;5085818;28;20051;-75
2021/05/22 06:02:07;;;;;;;5.40;2.00;;;16.10;96.70;;;;;;5100186;28;20036;-77
2021/05/22 06:04:36;;;;;;;2.88;1.45;;;16.10;96.70;;;;;;5095266;28;20091;-75
2021/05/22 06:07:05;;;;;;;4.22;1.30;;;16.10;96.70;;;;;;5099170;28;20497;-75
2021/05/22 06:09:35;;;;;;;3.90;1.05;;;16.10;96.70;;;;;;5104042;28;20039;-75
2021/05/22 06:12:04;;;;;;;5.50;1.40;;;16.10;96.70;;;;;;5098952;27;20036;-75
2021/05/22 06:14:36;;;;;;;4.93;1.45;;;16.10;96.70;;;;;;5104675;27;20142;-75
2021/05/22 06:17:05;;;;;;;5.22;1.35;;;16.10;96.70;;;;;;5103048;28;20142;-76
2021/05/22 06:19:33;;;;;;;5.05;1.17;;;16.20;96.70;;;;;;5102455;28;20051;-76
2021/05/22 06:22:03;;;;;;;2.83;1.02;;;16.30;96.70;;;;;;5099142;28;20054;-76
2021/05/22 06:24:31;;;;;;;5.50;1.20;;;16.30;96.70;;;;;;5103055;28;20047;-77
2021/05/22 06:27:00;;;;;;;3.58;1.20;;;16.40;96.70;;;;;;5087612;28;20044;-77
2021/05/22 06:29:28;;;;;;;3.25;1.30;;;16.50;96.70;;;;;;5098445;28;20528;-77
2021/05/22 06:31:56;;;;;;;4.13;1.08;;;16.60;96.70;;;;;;5100635;28;20043;-77
2021/05/22 06:34:25;;;;;;;3.83;1.17;;;16.70;96.70;;;;;;5102332;28;20035;-77
2021/05/22 06:36:54;;;;;;;2.35;0.80;;;16.60;96.70;;;;;;5100846;28;20136;-77
2021/05/22 06:39:23;;;;;;;3.58;0.68;;;16.60;96.70;;;;;;5086581;28;20051;-76
2021/05/22 06:41:51;;;;;;;4.13;1.17;;;16.70;96.70;;;;;;5101742;28;20032;-77
2021/05/22 06:44:25;;;;;;;5.18;1.40;;;16.70;96.70;;;;;;5085574;28;20035;-76
2021/05/22 06:46:53;;;;;;;5.38;1.30;;;16.80;96.70;;;;;;5098904;28;20493;-76
2021/05/22 06:49:22;;;;;;;3.28;0.98;;;16.80;96.70;;;;;;5103688;28;20074;-77
2021/05/22 06:51:50;;;;;;;3.85;1.20;;;16.90;96.70;;;;;;5099209;28;20825;-77
2021/05/22 06:54:18;;;;;;;4.57;1.45;;;17.00;96.70;;;;;;5103748;28;20047;-77
2021/05/22 06:56:48;;;;;;;3.05;0.98;;;17.00;96.70;;;;;;5099797;28;20062;-77
2021/05/22 06:59:17;;;;;;;3.17;1.10;;;17.20;96.70;;;;;;5100091;28;20526;-77
2021/05/22 07:01:46;;;;;;;4.85;1.13;;;17.20;96.70;;;;;;5100446;28;20823;-77
2021/05/22 07:04:14;;;;;;;4.45;1.45;;;17.20;96.70;;;;;;5103352;28;20548;-77
2021/05/22 07:06:42;;;;;;;4.22;1.30;;;17.20;96.70;;;;;;5099985;28;20043;-76
2021/05/22 07:09:14;;;;;;;2.38;1.10;;;17.20;96.70;;;;;;5073674;28;20048;-77
2021/05/22 07:11:43;;;;;;;3.97;1.00;;;17.20;96.70;;;;;;5100279;28;20046;-77
2021/05/22 07:14:12;;;;;;;4.78;1.33;;;17.20;96.70;;;;;;5102481;27;20039;-77
2021/05/22 07:16:56;;;;;;;5.80;1.10;;;17.20;96.70;;;;;;5102731;28;20053;-77
2021/05/22 07:19:26;;;;;;;5.10;1.40;;;17.10;96.70;;;;;;5098734;28;20234;-76
2021/05/22 07:21:55;;;;;;;2.95;1.15;;;17.10;96.70;;;;;;5097394;28;20052;-77
2021/05/22 07:24:24;;;;;;;3.85;1.10;;;17.10;96.70;;;;;;5100820;28;20373;-76
2021/05/22 07:26:53;;;;;;;3.80;1.38;;;17.00;96.70;;;;;;5103886;28;20032;-77
2021/05/22 07:29:23;;;;;;;3.03;1.00;;;17.10;96.70;;;;;;5098036;28;20060;-77
2021/05/22 07:31:51;;;;;;;3.67;1.25;;;17.10;96.70;;;;;;5100655;28;20152;-77
2021/05/22 07:34:25;;;;;;;2.38;1.30;;;17.20;96.70;;;;;;5094883;28;20044;-76
2021/05/22 07:36:53;;;;;;;2.88;1.20;;;17.20;96.70;;;;;;5102287;28;20047;-76
2021/05/22 07:39:21;;;;;;;5.18;1.20;;;17.10;96.70;;;;;;5090524;28;20044;-77
2021/05/22 07:41:49;;;;;;;5.47;1.45;;;17.20;96.70;;;;;;5101673;28;20057;-77
2021/05/22 07:44:18;;;;;;;3.80;1.40;;;17.30;96.70;;;;;;5098590;28;20035;-76
2021/05/22 07:46:51;;;;;;;7.10;1.70;;;17.30;96.70;;;;;;5101628;28;20135;-76
2021/05/22 07:49:19;;;;;;;3.95;1.42;;;17.40;96.70;;;;;;5098823;28;20168;-76
2021/05/22 07:51:48;;;;;;;4.53;1.45;;;17.40;96.70;;;;;;5083900;28;20142;-76
2021/05/22 07:54:16;;;;;;;3.10;1.10;;;17.40;96.70;;;;;;5093966;28;20040;-76
2021/05/22 07:56:44;;;;;;;6.72;1.67;;;17.50;96.70;;;;;;5100737;28;20321;-76
2021/05/22 07:59:12;;;;;;;4.40;1.33;;;17.60;96.70;;;;;;5096238;28;20032;-76
2021/05/22 08:01:41;;;;;;;5.35;1.42;;;17.60;96.70;;;;;;5098973;28;20297;-76
2021/05/22 08:04:10;;;;;;;5.03;1.73;;;17.80;96.70;;;;;;5096799;28;20044;-76
2021/05/22 08:06:38;;;;;;;3.35;1.23;;;17.90;96.70;;;;;;5100253;27;20048;-76
2021/05/22 08:09:07;;;;;;;4.10;1.35;;;18.00;96.70;;;;;;5081816;28;20615;-76
2021/05/22 08:11:35;;;;;;;7.00;1.77;;;18.10;96.70;;;;;;5100376;28;20036;-75
2021/05/22 08:14:04;;;;;;;5.03;1.25;;;18.20;96.70;;;;;;5093299;28;20540;-76
2021/05/22 08:16:34;;;;;;;3.38;1.17;;;18.20;96.70;;;;;;5081927;28;20442;-76
2021/05/22 08:19:03;;;;;;;3.85;1.08;;;18.30;96.70;;;;;;5090426;28;20059;-77
2021/05/22 08:21:33;;;;;;;5.85;1.23;;;18.40;96.70;;;;;;5100051;28;20035;-75
2021/05/22 08:24:02;;;;;;;3.97;1.75;;;18.40;96.70;;;;;;5095356;28;20538;-75
2021/05/22 08:26:32;;;;;;;2.95;1.00;;;18.40;96.70;;;;;;5083253;28;20081;-75
2021/05/22 08:29:20;;;;;;;5.03;1.15;;;18.60;96.70;;;;;;5098152;28;20043;-76
2021/05/22 08:31:49;;;;;;;9.45;7.45;;;18.70;96.70;;;;;;5097476;28;20039;-75
2021/05/22 08:34:17;;;;;;;3.10;1.70;;;18.70;96.70;;;;;;5099365;28;20044;-75
2021/05/22 08:36:47;;;;;;;5.13;1.75;;;18.80;96.70;;;;;;5096909;28;20134;-75
2021/05/22 08:39:15;;;;;;;6.55;2.15;;;18.90;96.70;;;;;;5099207;28;20151;-76
2021/05/22 08:41:44;;;;;;;5.40;1.42;;;19.00;96.70;;;;;;5097911;28;20051;-77
2021/05/22 08:44:12;;;;;;;5.32;1.50;;;19.10;96.70;;;;;;5099920;28;20456;-78
2021/05/22 08:46:46;;;;;;;4.97;1.58;;;19.10;96.70;;;;;;5078828;28;20142;-79
2021/05/22 08:49:15;;;;;;;6.63;1.30;;;19.20;96.70;;;;;;5098286;28;20108;-79
2021/05/22 08:51:44;;;;;;;2.75;1.23;;;19.30;96.70;;;;;;5097926;28;20058;-78
2021/05/22 08:54:14;;;;;;;7.00;1.08;;;19.50;96.70;;;;;;5098062;28;20153;-78
2021/05/22 08:56:42;;;;;;;3.65;1.33;;;19.80;96.70;;;;;;5098101;28;20497;-78
2021/05/22 08:59:11;;;;;;;3.60;0.90;;;19.90;96.70;;;;;;5098252;28;20039;-78
2021/05/22 09:01:40;;;;;;;4.72;1.13;;;19.80;96.70;;;;;;5091479;28;20481;-78
2021/05/22 09:04:08;;;;;;;4.00;1.23;;;20.00;96.70;;;;;;5082937;28;20414;-76
2021/05/22 09:07:00;;;;;;;3.20;1.05;;;20.10;96.70;;;;;;5096220;28;20079;-77
2021/05/22 09:09:41;;;;;;;4.88;1.33;;;20.30;96.70;;;;;;5094039;28;20047;-77
2021/05/22 09:12:10;;;;;;;3.63;1.10;;;20.30;96.70;;;;;;5079680;28;20502;-76
2021/05/22 09:14:44;;;;;;;4.18;1.00;;;20.40;96.70;;;;;;5101534;28;20790;-75
2021/05/22 09:17:13;;;;;;;6.03;1.30;;;20.40;96.70;;;;;;5099801;28;20052;-75
2021/05/22 09:19:42;;;;;;;3.83;1.02;;;20.40;96.70;;;;;;5093521;28;20123;-74
2021/05/22 09:22:20;;;;;;;3.65;0.80;;;20.40;96.70;;;;;;5100923;28;20047;-74
2021/05/22 09:24:57;;;;;;;3.95;1.20;;;20.40;96.70;;;;;;5095671;28;20217;-75
2021/05/22 09:27:30;;;;;;;4.53;1.20;;;20.60;96.70;;;;;;5093442;28;20032;-74
2021/05/22 09:30:08;;;;;;;6.72;1.27;;;20.80;96.70;;;;;;5093447;28;20039;-75
2021/05/22 09:32:37;;;;;;;3.33;0.80;;;20.70;96.70;;;;;;5092875;28;20048;-75
2021/05/22 09:35:07;;;;;;;4.28;1.00;;;20.70;96.70;;;;;;5095162;28;20040;-75
2021/05/22 09:37:44;;;;;;;2.63;0.80;;;20.60;96.70;;;;;;5092458;28;20052;-75
2021/05/22 09:40:16;;;;;;;3.50;1.13;;;20.60;96.70;;;;;;5115340;27;20080;-75
2021/05/22 09:42:45;;;;;;;2.72;0.50;;;20.70;96.70;;;;;;5094247;28;20085;-75
2021/05/22 09:45:31;;;;;;;6.78;1.10;;;20.80;96.70;;;;;;5092774;28;20401;-77
2021/05/22 09:48:09;;;;;;;4.57;1.17;;;20.80;96.70;;;;;;5096888;28;20047;-75
2021/05/22 09:50:40;;;;;;;4.63;1.20;;;20.90;96.70;;;;;;5079046;28;20119;-75
2021/05/22 09:53:32;;;;;;;4.07;1.25;;;20.90;96.70;;;;;;5096679;28;20034;-75
2021/05/22 09:56:10;;;;;;;5.15;2.33;;;20.90;96.70;;;;;;5096934;28;20060;-78
2021/05/22 09:58:40;;;;;;;42.55;33.53;;;20.80;96.70;;;;;;5069757;28;20081;-77
2021/05/22 10:01:10;;;;;;;5.55;3.30;;;20.90;96.70;;;;;;5090581;28;20044;-77
2021/05/22 10:03:38;;;;;;;6.25;2.58;;;20.90;96.70;;;;;;5091612;28;20044;-77
2021/05/22 10:06:07;;;;;;;4.45;1.88;;;20.90;96.70;;;;;;5094145;28;20493;-75
2021/05/22 10:08:36;;;;;;;3.33;1.23;;;20.80;96.70;;;;;;5096334;28;20050;-76
2021/05/22 10:11:04;;;;;;;5.07;1.85;;;21.00;96.70;;;;;;5100504;28;20052;-76
2021/05/22 10:13:36;;;;;;;6.70;2.03;;;21.10;96.70;;;;;;5097271;28;20042;-76
2021/05/22 10:16:06;;;;;;;5.30;1.63;;;21.20;96.70;;;;;;5097749;28;20048;-75
2021/05/22 10:18:34;;;;;;;4.80;1.52;;;21.10;96.70;;;;;;5096620;28;20493;-75
2021/05/22 10:21:04;;;;;;;4.88;1.30;;;20.90;96.70;;;;;;5083033;28;20040;-74
2021/05/22 10:23:34;;;;;;;6.57;1.50;;;21.00;96.70;;;;;;5097006;28;20453;-76
2021/05/22 10:26:02;;;;;;;6.03;1.50;;;21.10;96.70;;;;;;5096640;28;20519;-76
2021/05/22 10:28:31;;;;;;;3.90;1.58;;;21.30;96.70;;;;;;5098793;28;20043;-75
2021/05/22 10:31:00;;;;;;;4.18;1.48;;;21.50;96.70;;;;;;5097461;28;20074;-77
2021/05/22 10:33:35;;;;;;;2.85;1.15;;;21.60;96.70;;;;;;5100059;28;20040;-76
2021/05/22 10:36:04;;;;;;;4.40;1.35;;;21.70;96.70;;;;;;5099295;28;20112;-77
2021/05/22 10:38:42;;;;;;;9.57;1.83;;;21.60;96.70;;;;;;5102724;28;20050;-75
2021/05/22 10:41:12;;;;;;;3.53;1.05;;;21.70;96.70;;;;;;5095151;28;20036;-75
2021/05/22 10:43:46;;;;;;;2.55;1.20;;;21.70;96.70;;;;;;5101901;28;20061;-76
2021/05/22 10:46:17;;;;;;;3.83;1.20;;;21.60;96.70;;;;;;5096772;28;20127;-76
2021/05/22 10:48:51;;;;;;;5.18;1.65;;;21.60;96.70;;;;;;5103904;28;20035;-76
2021/05/22 10:51:26;;;;;;;6.50;1.50;;;21.70;96.70;;;;;;5101286;28;20075;-77
2021/05/22 10:53:56;;;;;;;3.92;1.48;;;21.60;96.70;;;;;;5102976;28;20340;-75
2021/05/22 10:56:25;;;;;;;6.50;1.77;;;21.40;96.70;;;;;;5100583;28;20104;-76
2021/05/22 10:59:13;;;;;;;5.82;1.40;;;21.20;96.70;;;;;;5100569;28;20058;-75
2021/05/22 11:01:45;;;;;;;6.45;1.13;;;21.10;96.70;;;;;;5099797;28;20043;-76
2021/05/22 11:04:40;;;;;;;3.50;0.95;;;21.10;96.70;;;;;;5102221;28;20649;-77
2021/05/22 11:07:19;;;;;;;3.67;1.00;;;21.10;96.70;;;;;;5100377;28;20554;-77
2021/05/22 11:09:55;;;;;;;7.65;1.67;;;21.40;96.70;;;;;;5099056;28;20032;-76
2021/05/22 11:12:45;;;;;;;5.80;1.55;;;21.70;96.70;;;;;;5101821;28;20142;-75
2021/05/22 11:15:37;;;;;;;6.20;1.45;;;21.80;96.70;;;;;;5101776;28;20062;-75
2021/05/22 11:18:07;;;;;;;3.80;1.65;;;21.80;96.70;;;;;;5076229;28;20048;-75
2021/05/22 11:20:37;;;;;;;5.05;1.17;;;21.70;96.70;;;;;;5080756;28;20444;-75
2021/05/22 11:23:06;;;;;;;5.85;1.30;;;21.70;96.70;;;;;;5103767;28;20040;-75
2021/05/22 11:25:51;;;;;;;3.40;1.00;;;21.80;96.70;;;;;;5095288;28;20068;-75
2021/05/22 11:28:21;;;;;;;3.20;1.10;;;21.80;96.70;;;;;;5101463;28;20040;-75
2021/05/22 11:30:55;;;;;;;4.43;0.95;;;22.40;96.70;;;;;;5081324;28;20417;-75
2021/05/22 11:33:30;;;;;;;2.75;1.05;;;22.50;96.70;;;;;;5099035;28;20389;-74
2021/05/22 11:36:12;;;;;;;5.80;1.67;;;22.30;96.70;;;;;;5099910;28;20611;-76
2021/05/22 11:38:43;;;;;;;7.30;1.45;;;22.30;96.70;;;;;;5097052;28;20058;-75
2021/05/22 11:41:13;;;;;;;7.88;1.63;;;22.20;96.70;;;;;;5084064;28;20055;-76
2021/05/22 11:43:44;;;;;;;5.20;1.75;;;22.00;96.70;;;;;;5096848;28;20104;-76
2021/05/22 11:46:18;;;;;;;7.55;1.73;;;21.90;96.70;;;;;;5102828;28;20036;-76
2021/05/22 11:48:50;;;;;;;5.80;2.28;;;21.80;96.70;;;;;;5096167;28;20072;-75
2021/05/22 11:51:20;;;;;;;4.28;1.70;;;21.60;96.70;;;;;;5098245;28;20043;-76
2021/05/22 11:53:52;;;;;;;8.98;1.30;;;21.70;96.70;;;;;;5097576;28;20461;-75
2021/05/22 11:56:21;;;;;;;5.40;1.60;;;21.70;96.70;;;;;;5100184;28;20528;-75
2021/05/22 11:58:51;;;;;;;4.35;1.42;;;21.60;96.70;;;;;;5078394;28;20079;-75
2021/05/22 12:01:22;;;;;;;5.88;1.48;;;21.50;96.70;;;;;;5096392;28;20551;-75
2021/05/22 12:03:53;;;;;;;5.40;1.20;;;21.40;96.70;;;;;;5091114;28;20139;-75
2021/05/22 12:06:28;;;;;;;4.85;1.42;;;21.30;96.70;;;;;;5100321;28;20043;-75
2021/05/22 12:09:11;;;;;;;2.97;1.35;;;21.20;96.70;;;;;;5098974;28;20048;-75
2021/05/22 12:11:45;;;;;;;6.18;1.48;;;21.20;96.70;;;;;;5099316;28;20100;-75
2021/05/22 12:14:13;;;;;;;7.40;1.58;;;21.40;96.70;;;;;;5100521;27;20138;-75
2021/05/22 12:16:42;;;;;;;5.40;1.50;;;21.60;96.70;;;;;;5099714;27;20495;-75
2021/05/22 12:19:14;;;;;;;5.32;1.33;;;21.80;96.70;;;;;;5099589;28;20067;-76
2021/05/22 12:21:48;;;;;;;7.53;1.65;;;21.70;96.70;;;;;;5099641;28;20096;-76
2021/05/22 12:24:18;;;;;;;6.53;1.45;;;21.60;96.70;;;;;;5098300;27;20153;-76
2021/05/22 12:26:49;;;;;;;5.65;1.50;;;21.40;96.70;;;;;;5096300;28;20044;-75
2021/05/22 12:29:18;;;;;;;5.40;1.40;;;21.40;96.70;;;;;;5076199;28;20534;-75
2021/05/22 12:31:49;;;;;;;4.18;1.45;;;21.40;96.70;;;;;;5099771;28;20802;-75
2021/05/22 12:34:24;;;;;;;5.85;1.42;;;21.30;96.70;;;;;;5099684;28;20036;-75
2021/05/22 12:37:00;;;;;;;3.00;1.30;;;21.30;96.70;;;;;;5096406;28;20055;-75
2021/05/22 12:39:32;;;;;;;;;;;21.30;96.70;;;;;;5100834;28;20316;-75
2021/05/22 12:42:11;;;;;;;5.95;1.30;;;21.50;96.70;;;;;;5094694;28;20010;-76
2021/05/22 12:44:39;;;;;;;8.23;1.48;;;21.70;96.70;;;;;;5097961;28;20539;-80
2021/05/22 12:47:07;;;;;;;7.05;2.03;;;21.70;96.70;;;;;;5073099;28;20051;-77
2021/05/22 12:49:37;;;;;;;5.00;1.33;;;21.60;96.70;;;;;;5076483;28;20573;-75
2021/05/22 12:52:10;;;;;;;6.32;1.50;;;21.40;96.70;;;;;;5107074;27;20515;-75
2021/05/22 12:54:44;;;;;;;5.10;1.42;;;21.20;96.70;;;;;;5090548;28;20043;-76
2021/05/22 12:57:14;;;;;;;4.25;1.33;;;21.20;96.70;;;;;;5096457;28;20093;-74
2021/05/22 12:59:43;;;;;;;5.57;1.35;;;21.40;96.70;;;;;;5091318;28;20059;-75
2021/05/22 13:02:18;;;;;;;6.15;1.38;;;21.60;96.70;;;;;;5091946;28;20049;-76
2021/05/22 13:04:49;;;;;;;5.13;1.35;;;21.90;96.70;;;;;;5094105;28;20069;-75
2021/05/22 13:07:21;;;;;;;4.55;1.38;;;22.20;96.70;;;;;;5099764;28;20043;-76
2021/05/22 13:09:57;;;;;;;5.22;1.63;;;22.10;96.70;;;;;;5079228;28;20124;-76
2021/05/22 13:12:27;;;;;;;5.90;1.52;;;22.00;96.70;;;;;;5091596;28;20505;-76